Weather observations for the past three days for
Brunswick / Glynco
Metric (Imperial)
Date Time (edt) Wind (kph) Vis. (km) Weather Sky Cond. Temperature (ºC) Relative Humidity Wind Chill (°C) Heat Index (°C) Pressure Precipitation (cm)
Air Dwpt 6 hour altimeter (cm) sea level (mb) 1 hr 3 hr 6 hr
Max. Min.
07 14:15 SW 39 G 57 16.09 Fair and Breezy CLR 27.8 20.2 63% 30 75.87 0.0
07 13:55 SW 41 G 52 16.09 Partly Cloudy and Breezy SCT033 SCT055 SCT120 25.9 20.2 26.3 21.4 71% 27 75.9 0.0
07 13:35 SW 30 G 50 16.09 Light Rain SCT033 SCT055 BKN100 25.9 20 70% 27 76 0.0
07 13:15 SW 31 16.09 Fair CLR 26.3 19.5 66% 28 75.95 0.0
07 12:55 SW 26 16.09 Partly Cloudy SCT100 SCT120 25.9 19.2 67% 27 75.97 0.0
07 12:35 SW 24 16.09 Fair CLR 25.8 18.6 65% 27 76 0.0
07 12:15 SW 24 16.09 Fair CLR 26.2 18.2 61% 27 76.07 0.0
07 11:55 SW 22 16.09 Fair CLR 25.8 17.8 61% 27 76.12 0.0
07 11:35 SW 28 16.09 Fair CLR 26 18 61% 27 76.17 0.0
07 11:15 SW 24 11.27 Fair CLR 26 17.9 61% 27 76.17 0.0
07 10:55 SW 20 11.27 Fair with Haze CLR 25.2 18 64% 26 76.12 0.0
07 10:35 S 20 11.27 Fair CLR 25.3 18.4 66% 26 76.1 0.0
07 10:15 S 17 16.09 Fair CLR 25.6 18.6 65% 27 76.1 0.0
07 09:55 S 11 11.27 Fair with Haze CLR 25.4 19.4 69% 26 76.1 0.0
07 09:35 SW 9 8.05 Fair with Haze CLR 25.1 20.4 75% 26 76.12 0.0
07 09:15 SW 11 4.83 Fair with Haze CLR 24.3 19.7 76% 25 76.15 0.0
07 08:55 SW 11 4.02 Fair with Haze CLR 23.1 19.6 81% 76.15 0.0
07 08:35 S 9 3.22 Fair with Haze CLR 22.3 19.4 84% 76.1 0.0
07 08:15 S 11 2.82 Sky Obscured with Haze VV007 21.8 18.9 84% 76.07 0.0
07 07:55 S 7 2.41 Fog/Mist VV007 21 19 23.7 19.7 88% 76.07 0.0
07 07:35 S 9 2.01 Fog/Mist VV007 20.5 18.2 87% 76.1 0.0
07 07:15 Calm 2.01 Fog/Mist VV007 19.7 17.6 88% 76.12 0.0
07 06:55 W 7 2.41 Fog/Mist VV007 20.2 17.6 85% 76.17 0.0
07 06:35 W 6 3.22 Partly Cloudy with Haze SCT007 SCT017 20.9 18 84% 76.17 0.0
07 06:15 NW 11 11.27 Partly Cloudy SCT015 21 18.1 84% 76.17 0.0
07 05:55 NW 9 16.09 Fair CLR 21.2 18.1 83% 76.12 0.0
07 05:35 W 7 16.09 Fair CLR 21.2 18.2 83% 76.1 0.0
07 05:15 W 11 16.09 Fair CLR 21.4 18.4 83% 76.1 0.0
07 04:55 SW 11 16.09 Fair CLR 21.8 18.2 80% 76.05 0.0
07 04:35 SW 13 16.09 Fair CLR 22.3 18.1 77% 76 0.0
07 04:15 SW 15 16.09 Fair CLR 23 18.3 75% 75.97 0.0
07 03:55 SW 15 16.09 Fair CLR 23.1 18 73% 75.97 0.0
07 03:35 S 15 16.09 Fair CLR 23.3 18 72% 75.95 0.0
07 03:15 S 15 16.09 Fair CLR 23.4 18 72% 75.97 0.0
07 02:55 S 13 16.09 Fair CLR 23.4 18 72% 76.02 0.0
07 02:35 S 15 16.09 Fair CLR 23.6 18 71% 76.05 0.0
07 02:15 S 11 16.09 Fair CLR 23.7 18 71% 76.05 0.0
07 01:55 SW 11 16.09 Fair CLR 23.7 17.9 24.9 23.7 70% 76.07 0.0
07 01:35 S 13 16.09 Fair CLR 23.7 17.9 70% 76.1 0.0
07 01:15 S 9 16.09 Fair CLR 23.9 17.8 69% 25 76.1 0.0
07 00:55 S 15 16.09 Fair CLR 24.2 17.9 68% 25 76.12 0.0
07 00:35 SW 17 16.09 Fair CLR 24.4 17.9 67% 25 76.12 0.0
07 00:15 S 17 16.09 Fair CLR 24.5 17.9 67% 25 76.12 0.0
06 23:55 S 19 16.09 Fair CLR 24.4 17.7 66% 25 76.12 0.0
06 23:15 S 20 G 30 16.09 Fair CLR 24.2 17.9 68% 25 76.12 0.0
06 22:55 S 20 16.09 Fair CLR 23.9 18.3 71% 25 76.12 0.0
06 22:35 S 19 16.09 Fair CLR 24 18.6 72% 25 76.1 0.0
06 22:15 S 15 16.09 Fair CLR 24 18.9 73% 25 76.12 0.0
06 21:35 S 19 16.09 Fair CLR 24.2 19.1 73% 25 76.12 0.0
06 21:15 S 22 G 30 16.09 Fair CLR 24.2 19.2 74% 25 76.12 0.0
06 20:55 S 22 16.09 Fair CLR 24.1 19.1 74% 25 76.12 0.0
06 20:35 S 17 16.09 Fair CLR 24.2 18.9 72% 25 76.1 0.0
06 20:15 S 17 16.09 Fair CLR 24.5 18.5 69% 25 76.12 0.0
06 19:55 S 13 16.09 Fair CLR 25 18.3 32 24.9 66% 26 76.12 0.0
06 19:35 S 19 16.09 Fair CLR 25.9 18.4 63% 27 76.12 0.0
06 19:15 SE 17 16.09 Fair CLR 27.2 19.2 62% 28 76.1 0.0
06 18:55 SE 19 16.09 Fair CLR 27.7 19.4 61% 29 76.1 0.0
06 18:35 SE 19 16.09 Fair CLR 28.2 19.9 61% 30 76.1 0.0
06 18:15 SE 19 16.09 Fair CLR 28.7 19.8 59% 30 76.12 0.0
06 17:55 SE 24 16.09 Fair CLR 28.9 19.6 57% 30 76.1 0.0
06 17:35 S 24 16.09 Fair CLR 29 19.5 57% 31 76.1 0.0
06 17:15 S 28 16.09 Fair CLR 29.3 19.2 55% 31 76.1 0.0
06 16:55 S 20 16.09 Fair CLR 29.8 19.5 54% 31 76.1 0.0
06 16:35 SE 24 G 30 16.09 Fair CLR 29.9 19.3 53% 31 76.12 0.0
06 16:15 S 26 16.09 Fair CLR 30.1 19 51% 31 76.12 0.0
06 15:55 S 22 G 31 16.09 Fair CLR 30.5 19.4 52% 32 76.12 0.0
06 15:35 SE 22 G 33 16.09 Fair CLR 30.9 19.3 50% 32 76.15 0.0
06 15:15 SE 19 16.09 Fair CLR 30.7 19.3 51% 32 76.17 0.0
06 14:55 SE 28 16.09 Fair CLR 31.2 19.1 49% 33 76.2 0.0
06 14:35 S 24 16.09 Fair CLR 31.5 19 47% 33 76.2 0.0
06 14:15 SE 17 G 30 16.09 Fair CLR 31.8 18.8 46% 33 76.23 0.0
06 13:55 SE 13 16.09 Partly Cloudy SCT050 32 18.9 32.6 20.5 46% 33 76.23 0.0
06 13:35 S 15 G 37 16.09 Partly Cloudy SCT050 32.3 18.6 44% 34 76.25 0.0
06 13:15 SW 15 16.09 Fair CLR 31.3 17.4 43% 32 76.28 0.0
06 12:55 SW 17 16.09 Fair CLR 31.1 17.2 43% 32 76.28 0.0
06 12:35 SW 15 G 30 16.09 Fair CLR 30.4 17.2 45% 31 76.3 0.0
06 11:55 SW 9 16.09 Fair CLR 30.2 16.8 44% 31 76.33 0.0
06 11:35 SW 17 16.09 Fair CLR 29.6 17 47% 30 76.33 0.0
06 11:15 SW 19 16.09 Fair CLR 28.9 16.8 48% 29 76.33 0.0
06 10:15 SW 20 16.09 Fair CLR 27 17.1 55% 28 76.3 0.0
06 09:55 SW 20 16.09 Fair CLR 25.9 17.2 59% 27 76.3 0.0
06 09:35 S 20 16.09 Fair CLR 25.4 17.1 60% 26 76.28 0.0
06 09:15 SW 20 16.09 Fair CLR 24.4 16.6 62% 26 76.28 0.0
06 08:55 S 17 16.09 Fair CLR 23.8 16.5 64% 76.3 0.0
06 08:35 S 19 16.09 Fair CLR 22.6 16.3 68% 76.28 0.0
06 08:15 S 15 16.09 Fair CLR 21.3 16.7 75% 76.28 0.0
06 07:55 S 11 16.09 Fair CLR 20.4 16.9 20.5 15.2 80% 76.28 0.0
06 07:35 SW 11 16.09 Fair CLR 18.9 16.4 86% 76.28 0.0
06 07:15 S 9 16.09 Fair CLR 16.7 15 90% 76.23 0.0
06 06:55 Calm 16.09 Fair CLR 15.2 13.3 89% 76.23 0.0
06 06:35 Calm 16.09 Fair CLR 15.3 13.2 87% 76.2 0.0
06 06:15 S 6 16.09 Fair CLR 15.8 14 89% 76.23 0.0
06 05:55 SW 7 16.09 Fair CLR 16.1 14.4 90% 76.23 0.0
06 05:35 SW 7 16.09 Fair CLR 16.3 14.2 87% 76.2 0.0
06 05:15 S 6 16.09 Fair CLR 16.5 14.5 88% 76.2 0.0
06 04:55 S 7 16.09 Fair CLR 16.3 14.6 90% 76.2 0.0
06 04:35 S 7 16.09 Fair CLR 16.2 14.4 89% 76.2 0.0
06 04:15 S 6 16.09 Fair CLR 16.3 14.2 87% 76.2 0.0
06 03:55 S 6 16.09 Fair CLR 16.5 14.3 87% 76.2 0.0
06 03:35 SW 6 16.09 Fair CLR 16.9 14.1 84% 76.2 0.0
06 03:15 S 6 16.09 Fair CLR 16.8 14.1 84% 76.17 0.0
06 02:55 S 6 16.09 Fair CLR 17.7 14.1 80% 76.2 0.0
06 02:35 SE 9 16.09 Fair CLR 16.6 13.9 84% 76.2 0.0
06 02:15 S 6 16.09 Fair CLR 16.5 13.9 85% 76.25 0.0
06 01:55 S 6 16.09 Fair CLR 16.2 13.7 21.7 15.3 85% 76.25 0.0
06 01:35 S 6 16.09 Fair CLR 16.1 14.1 88% 76.28 0.0
06 01:15 SW 7 16.09 Fair CLR 15.7 13.2 85% 76.28 0.0
06 00:35 S 6 16.09 Fair CLR 16.3 13 81% 76.28 0.0
06 00:15 S 7 16.09 Fair CLR 16.4 12 75% 76.25 0.0
05 23:55 S 7 16.09 Fair CLR 15.4 10.4 72% 76.28 0.0
05 23:35 Calm 16.09 Fair CLR 16.3 11.9 75% 76.3 0.0
05 23:15 Calm 16.09 Fair CLR 18.4 12.3 68% 76.28 0.0
05 22:55 S 9 16.09 Fair CLR 18.9 13.1 69% 76.28 0.0
05 22:35 SE 7 16.09 Fair CLR 18.9 12.3 66% 76.25 0.0
05 22:15 SE 7 16.09 Fair CLR 19.4 13.2 68% 76.25 0.0
05 21:55 SE 9 16.09 Fair CLR 19.2 13.3 69% 76.25 0.0
05 21:35 SE 9 16.09 Fair CLR 19.6 13.1 66% 76.23 0.0
05 21:15 SE 9 16.09 Fair CLR 19.9 12.9 64% 76.23 0.0
05 20:55 SE 11 16.09 Fair CLR 20.2 12.5 61% 76.23 0.0
05 20:35 SE 11 16.09 Fair CLR 20.6 12.6 60% 76.23 0.0
05 20:15 SE 13 16.09 Fair CLR 21 12.7 59% 76.2 0.0
05 19:55 SE 13 16.09 Fair CLR 21.8 13.1 28.4 21.7 58% 76.2 0.0
05 19:35 SE 17 16.09 Fair CLR 22.7 13.4 56% 76.23 0.0
05 19:15 SE 19 16.09 Fair CLR 23.8 13.2 52% 76.2 0.0
05 18:55 SE 19 16.09 Fair CLR 24.1 13.5 52% 25 76.23 0.0
05 18:35 SE 20 16.09 Fair CLR 24.7 13.6 50% 26 76.2 0.0
05 18:15 SE 20 16.09 Fair CLR 25 13.4 49% 26 76.2 0.0
05 17:55 SE 26 16.09 Fair CLR 25.6 13.8 48% 26 76.2 0.0
05 17:35 SE 20 16.09 Fair CLR 25.4 14 49% 26 76.23 0.0
05 17:15 SE 22 16.09 Fair CLR 26.7 14.7 48% 27 76.23 0.0
05 16:35 SE 20 16.09 Fair CLR 27.2 13.7 43% 27 76.23 0.0
05 16:15 SE 17 G 33 16.09 Fair CLR 27.4 12.2 39% 27 76.25 0.0
05 15:55 E 19 16.09 Fair CLR 28 12.5 38% 28 76.25 0.0
05 15:35 E 20 16.09 Fair CLR 27.9 12.3 38% 27 76.28 0.0
05 15:15 SE 20 G 33 16.09 Fair CLR 27.7 12.9 40% 27 76.28 0.0
05 14:55 SE 24 16.09 Fair CLR 28.1 13.6 41% 28 76.3 0.0
05 14:35 SE 22 G 30 16.09 Fair CLR 28.2 14 42% 28 76.33 0.0
05 14:15 SE 20 16.09 Fair CLR 28.2 14 42% 28 76.33 0.0
05 13:55 SE 20 16.09 Fair CLR 27.8 14.3 28.2 14.2 44% 28 76.33 0.0
05 13:35 SE 22 16.09 Fair CLR 27.9 14.5 44% 28 76.33 0.0
05 13:15 S 22 16.09 Fair CLR 27.9 14.4 44% 28 76.33 0.0
05 12:55 SE 19 16.09 Fair CLR 27.7 14.4 44% 28 76.35 0.0
05 12:35 SE 15 16.09 Fair CLR 27.9 14.3 43% 28 76.35 0.0
05 12:15 E 11 16.09 Fair CLR 28 13.9 42% 28 76.35 0.0
05 11:55 SE 15 16.09 Fair CLR 28.1 13.6 41% 28 76.35 0.0
05 11:15 SE 17 16.09 Fair CLR 27.2 12.8 41% 27 76.38 0.0
05 10:55 SE 11 16.09 Fair CLR 26.6 13.8 45% 27 76.38 0.0
05 10:35 S 11 16.09 Fair CLR 26.1 13.9 47% 27 76.35 0.0
05 10:15 SE 7 16.09 Fair CLR 25.4 14.5 51% 26 76.35 0.0
05 09:55 SE 9 16.09 Fair CLR 24.8 14.8 54% 26 76.35 0.0
05 09:35 S 11 16.09 Fair CLR 24.1 15.6 59% 25 76.35 0.0
05 09:15 SE 9 16.09 Fair CLR 23.1 18.1 74% 76.35 0.0
05 08:55 E 6 16.09 Fair CLR 20.8 19.4 92% 76.33 0.0
05 08:35 Calm 16.09 Fair CLR 18 17.2 95% 76.33 0.0
05 08:15 Calm 16.09 Fair CLR 16.3 15.8 97% 76.3 0.0
05 07:55 Calm 16.09 Fair CLR 13.9 13.2 17.8 10.7 96% 76.3 0.0
05 07:35 Calm 16.09 Fair CLR 12.9 12.2 96% 76.3 0.0
05 07:15 Calm 16.09 Fair CLR 11.4 10.6 95% 76.28 0.0
05 06:55 Calm 16.09 Fair CLR 11.1 10.3 95% 76.28 0.0
05 06:35 Calm 16.09 Fair CLR 10.9 10.1 95% 76.28 0.0
05 06:15 Calm 16.09 Fair CLR 10.8 10 95% 76.28 0.0
05 05:55 Calm 16.09 Fair CLR 11.1 10.3 95% 76.23 0.0
05 05:35 W 6 16.09 Fair CLR 11.4 10.6 95% 76.23 0.0
05 05:15 Calm 6.44 Fog/Mist CLR 11.2 10.1 93% 76.2 0.0
05 04:55 Calm 16.09 Fair CLR 11.1 9 87% 76.23 0.0
05 04:35 Calm 16.09 Fair CLR 11.6 9.8 89% 76.2 0.0
05 04:15 Calm 16.09 Fair CLR 11.4 8.8 84% 76.2 0.0
05 03:55 Calm 16.09 Fair CLR 12.3 10.2 87% 76.2 0.0
05 03:35 Calm 16.09 Fair CLR 12.9 9.5 80% 76.2 0.0
05 03:15 Calm 16.09 Fair CLR 13.4 9.8 79% 76.23 0.0
05 02:55 S 6 16.09 Fair CLR 14.9 9.9 72% 76.23 0.0
05 02:35 SW 7 16.09 Fair CLR 17.1 11.6 70% 76.23 0.0
05 02:15 S 9 16.09 Fair CLR 17.8 12.7 72% 76.25 0.0
05 01:35 SE 11 16.09 Fair CLR 17.8 12.4 71% 76.28 0.0
05 01:15 SE 11 16.09 Fair CLR 17.9 12.5 71% 76.3 0.0
05 00:55 SE 11 16.09 Fair CLR 18 12.7 71% 76.33 0.0
05 00:15 SE 11 16.09 Fair CLR 18.1 13 72% 76.33 0.0
04 23:55 SE 11 16.09 Fair CLR 18 12.9 72% 76.33 0.0
04 23:35 SE 11 16.09 Fair CLR 18.1 13.1 73% 76.33 0.0
04 23:15 SE 9 16.09 Fair CLR 18 12.7 71% 76.33 0.0
04 22:55 SE 9 16.09 Fair CLR 18.1 12.4 70% 76.3 0.0
04 22:35 SE 11 16.09 Fair CLR 18.5 12.5 68% 76.3 0.0
04 22:15 SE 11 16.09 Fair CLR 18.6 12.7 69% 76.3 0.0
04 21:55 SE 13 16.09 Fair CLR 18.5 12.9 70% 76.3 0.0
04 21:35 SE 13 16.09 Fair CLR 18.2 12.7 70% 76.3 0.0
04 21:15 SE 11 16.09 Fair CLR 18.3 12.2 68% 76.3 0.0
04 20:55 SE 11 16.09 Fair CLR 18.6 11.8 65% 76.3 0.0
04 20:35 SE 9 16.09 Fair CLR 19.2 11.4 61% 76.3 0.0
04 20:15 SE 11 16.09 Fair CLR 19.9 11.2 57% 76.28 0.0
04 19:55 SE 15 16.09 Fair CLR 21.2 11 26.7 21 52% 76.28 0.0
04 19:35 SE 19 16.09 Fair CLR 22.2 10.9 49% 76.28 0.0
04 19:15 SE 20 16.09 Fair CLR 23 10.7 46% 76.28 0.0
04 18:55 SE 19 16.09 Fair CLR 23.5 10.6 44% 76.28 0.0
04 18:35 SE 17 16.09 Fair CLR 24.1 10.6 43% 25 76.28 0.0
04 18:15 SE 20 G 30 16.09 Fair CLR 24.7 10.4 41% 26 76.3 0.0
04 17:55 SE 19 16.09 Fair CLR 24.8 10 39% 26 76.28 0.0
04 17:35 SE 19 16.09 Fair CLR 25.3 10 38% 26 76.28 0.0
04 17:15 SE 19 G 30 16.09 Fair CLR 25.7 9.2 35% 26 76.28 0.0
04 16:55 SE 19 16.09 Fair CLR 25.6 9 35% 26 76.28 0.0
04 16:35 SE 17 16.09 Fair CLR 26 8.7 34% 26 76.28 0.0
04 15:55 SE 19 G 31 16.09 Fair CLR 26.4 8.1 31% 26 76.33 0.0
04 15:35 SE 20 G 31 16.09 Fair CLR 26.5 7.3 30% 26 76.33 0.0
04 15:15 SE 17 G 31 16.09 Fair CLR 26.4 7.1 29% 26 76.35 0.0
04 14:55 SE 15 16.09 Fair CLR 26.1 7.3 30% 26 76.38 0.0
04 14:35 SE 17 G 30 16.09 Fair CLR 26.3 7.5 30% 26 76.38 0.0
Date Time (edt) Wind (kph) Vis. (km) Weather Sky Cond. Air Dwpt Max. Min. Relative Humidity Wind Chill (°C) Heat Index (°C) altimeter (cm) sea level (mb) 1 hr 3 hr 6 hr
6 hour
Temperature (ºC) Pressure Precipitation (cm)